Time;durP1;ratioP1;P1;durP2;ratioP2;P2;SDS_P1;SDS_P2;PMS_P1;PMS_P2;Temp;Humidity;BMP_temperature;BMP_pressure;BME280_temperature;BME280_humidity;BME280_pressure;Samples;Min_cycle;Max_cycle;Signal;HPM_P1;HPM_P2
2023/12/21 00:11:45;;;;;;;6.97;4.40;;;;;;;20.38;53.09;100023.03;41691240;28;20049;-71
2023/12/21 00:31:46;;;;;;;5.55;3.85;;;;;;;20.34;53.22;100011.09;41674655;28;20064;-69
2023/12/21 00:51:46;;;;;;;4.32;3.50;;;;;;;20.31;53.53;99991.13;41661665;28;20496;-69
2023/12/21 01:11:46;;;;;;;4.80;3.28;;;;;;;20.27;53.56;99985.28;41674150;28;20052;-68
2023/12/21 01:31:47;;;;;;;5.68;3.42;;;;;;;20.24;52.91;99964.50;41669727;28;20041;-69
2023/12/21 01:51:48;;;;;;;4.45;2.70;;;;;;;20.25;52.91;99913.59;41672252;28;20049;-69
2023/12/21 02:11:49;;;;;;;3.80;2.65;;;;;;;20.28;52.71;99907.25;41658469;28;21779;-69
2023/12/21 02:31:49;;;;;;;4.03;2.63;;;;;;;20.29;52.46;99880.81;41652072;28;20038;-69
2023/12/21 02:51:50;;;;;;;3.15;2.42;;;;;;;20.27;52.44;99853.00;41630843;28;20450;-69
2023/12/21 03:11:50;;;;;;;2.72;2.17;;;;;;;20.29;52.49;99859.78;41653431;28;20053;-69
2023/12/21 03:31:52;;;;;;;2.13;1.80;;;;;;;20.30;52.34;99840.44;41651220;28;20051;-68
2023/12/21 03:51:57;;;;;;;1.73;1.60;;;;;;;20.33;52.34;99830.63;41642695;28;20053;-69
2023/12/21 04:11:58;;;;;;;9.10;1.85;;;;;;;20.48;52.26;99805.66;41636057;28;20088;-71
2023/12/21 04:32:00;;;;;;;1.83;1.63;;;;;;;20.47;51.66;99786.44;41672996;28;20092;-71
2023/12/21 04:52:00;;;;;;;2.28;1.90;;;;;;;20.51;51.07;99779.13;41670486;28;20052;-71
2023/12/21 05:12:01;;;;;;;3.83;1.90;;;;;;;20.60;51.14;99746.78;41665861;28;20063;-71
2023/12/21 05:32:01;;;;;;;3.03;1.88;;;;;;;21.22;50.76;99730.97;41672802;28;20048;-71
2023/12/21 05:52:03;;;;;;;19.40;3.60;;;;;;;21.33;50.44;99731.84;41669718;28;20045;-67
2023/12/21 06:12:04;;;;;;;20.67;4.35;;;;;;;21.42;50.76;99705.53;41663668;28;20041;-71
2023/12/21 06:32:06;;;;;;;19.42;4.10;;;;;;;21.39;48.92;99689.97;41677241;28;20045;-69
2023/12/21 06:52:06;;;;;;;10.98;3.72;;;;;;;21.50;49.08;99677.66;41673855;28;20038;-69
2023/12/21 07:12:07;;;;;;;8.88;3.60;;;;;;;21.61;48.95;99689.91;41680640;28;20041;-69
2023/12/21 07:32:07;;;;;;;5.43;3.60;;;;;;;21.62;49.13;99654.66;41677909;28;20128;-70
2023/12/21 07:52:09;;;;;;;6.90;3.45;;;;;;;21.58;48.60;99649.69;41673925;28;20445;-70
2023/12/21 08:12:09;;;;;;;5.30;3.97;;;;;;;21.67;49.24;99634.84;41660649;28;20061;-70
2023/12/21 08:32:10;;;;;;;7.68;4.32;;;;;;;21.71;49.15;99638.03;41698647;28;20049;-69
2023/12/21 08:52:10;;;;;;;6.97;4.80;;;;;;;21.68;48.50;99630.38;41710594;28;20068;-70
2023/12/21 09:12:10;;;;;;;7.55;5.22;;;;;;;21.63;48.12;99627.34;41703728;28;20446;-69
2023/12/21 09:32:13;;;;;;;11.18;4.95;;;;;;;21.62;48.72;99592.28;41732352;28;20049;-74
2023/12/21 09:52:17;;;;;;;8.23;5.07;;;;;;;21.68;49.24;99548.69;41700504;28;20073;-69
2023/12/21 10:12:18;;;;;;;13.80;4.95;;;;;;;21.59;49.30;99508.25;41660197;28;20041;-67
2023/12/21 10:32:19;;;;;;;8.13;4.90;;;;;;;21.64;49.23;99457.75;41650835;28;20037;-67
2023/12/21 10:52:21;;;;;;;8.15;5.20;;;;;;;21.57;49.24;99371.41;41653134;28;20068;-68
2023/12/21 11:12:22;;;;;;;15.23;6.43;;;;;;;21.49;49.03;99296.72;41649858;28;20047;-68
2023/12/21 11:32:26;;;;;;;8.30;5.32;;;;;;;21.64;48.58;99265.44;41621983;28;20077;-69
2023/12/21 11:52:26;;;;;;;12.70;5.35;;;;;;;21.56;48.54;99216.13;41654596;28;20680;-69
2023/12/21 12:12:27;;;;;;;11.70;5.45;;;;;;;21.60;48.07;99172.72;41665511;28;20050;-74
2023/12/21 12:32:27;;;;;;;10.63;4.85;;;;;;;21.51;49.07;99123.56;41646971;28;21299;-71
2023/12/21 12:52:28;;;;;;;6.82;4.25;;;;;;;21.61;48.62;99078.75;41658215;28;20037;-70
2023/12/21 13:12:29;;;;;;;7.57;4.35;;;;;;;21.54;48.56;99005.53;41674509;28;20191;-68
2023/12/21 13:32:32;;;;;;;6.45;4.53;;;;;;;21.27;48.40;98943.34;41653084;28;20562;-68
2023/12/21 13:52:32;;;;;;;8.23;4.15;;;;;;;21.19;48.75;98890.63;41655461;28;20072;-66
2023/12/21 14:12:34;;;;;;;5.13;3.95;;;;;;;21.17;48.50;98875.00;41678171;28;20048;-68
2023/12/21 14:32:35;;;;;;;6.50;4.30;;;;;;;21.14;48.37;98882.38;41654790;28;20049;-67
2023/12/21 14:52:37;;;;;;;6.65;4.28;;;;;;;21.06;48.08;98833.16;41650578;28;20447;-69
2023/12/21 15:12:38;;;;;;;5.22;3.63;;;;;;;20.99;48.35;98805.81;41659309;28;20048;-73
2023/12/21 15:32:39;;;;;;;7.00;3.80;;;;;;;20.94;48.29;98778.16;41676530;28;20056;-71
2023/12/21 15:52:41;;;;;;;6.10;3.70;;;;;;;20.89;48.34;98740.16;41650216;28;20049;-70
2023/12/21 16:12:42;;;;;;;4.28;3.10;;;;;;;20.85;48.25;98678.28;41665843;28;20117;-70
2023/12/21 16:32:43;;;;;;;6.10;3.10;;;;;;;21.04;48.96;98650.91;41683469;28;20086;-73
2023/12/21 16:52:43;;;;;;;4.60;3.22;;;;;;;21.01;48.95;98606.50;41705292;28;20144;-71
2023/12/21 17:12:43;;;;;;;6.68;3.20;;;;;;;20.77;48.79;98558.09;41701322;28;20389;-73
2023/12/21 17:32:45;;;;;;;5.75;3.42;;;;;;;20.74;48.76;98487.41;41701557;28;20091;-73
2023/12/21 17:52:45;;;;;;;15.60;3.65;;;;;;;20.68;48.76;98469.59;41647090;28;20046;-72
2023/12/21 18:12:46;;;;;;;4.00;3.33;;;;;;;20.79;49.25;98429.88;41660800;28;20057;-74
2023/12/21 18:32:47;;;;;;;12.68;4.20;;;;;;;20.94;50.02;98387.94;41686076;28;20041;-75
2023/12/21 18:52:50;;;;;;;11.80;3.97;;;;;;;20.86;51.04;98340.59;41695891;28;20045;-73
2023/12/21 19:12:51;;;;;;;6.35;4.35;;;;;;;20.85;50.98;98289.81;41705396;28;20478;-76
2023/12/21 19:32:52;;;;;;;8.50;4.60;;;;;;;20.99;51.24;98213.81;41684165;28;20045;-73
2023/12/21 19:52:53;;;;;;;7.90;5.35;;;;;;;20.91;51.49;98175.16;41657432;28;20052;-71
2023/12/21 20:12:54;;;;;;;12.50;7.53;;;;;;;20.95;51.17;98147.56;41686515;28;20103;-73
2023/12/21 20:32:56;;;;;;;8.23;6.70;;;;;;;20.83;51.78;98107.66;41689737;28;20104;-70
2023/12/21 20:52:56;;;;;;;13.93;7.05;;;;;;;20.93;52.06;98060.91;41635597;28;20553;-71
2023/12/21 21:13:00;;;;;;;12.52;7.53;;;;;;;20.82;52.14;98042.88;41667974;28;20103;-72
2023/12/21 21:33:04;;;;;;;14.18;7.18;;;;;;;20.71;52.48;97988.03;41632247;28;20382;-69
2023/12/21 21:53:04;;;;;;;10.18;7.68;;;;;;;20.72;52.23;97984.44;41667300;28;20033;-70
2023/12/21 22:13:06;;;;;;;9.18;6.95;;;;;;;20.67;52.37;97947.31;41644781;28;20753;-69
2023/12/21 22:33:06;;;;;;;9.07;6.82;;;;;;;20.69;52.08;97862.00;41631643;28;20045;-69
2023/12/21 22:53:08;;;;;;;10.82;6.60;;;;;;;20.66;52.82;97922.81;41663836;28;20045;-70
2023/12/21 23:13:16;;;;;;;9.88;6.97;;;;;;;20.56;53.62;97830.22;41648292;28;20045;-70
2023/12/21 23:33:18;;;;;;;9.70;6.75;;;;;;;20.53;54.11;97759.56;41626091;28;20058;-69
2023/12/21 23:53:19;;;;;;;11.27;6.55;;;;;;;20.53;54.03;97923.41;41654607;28;20044;-70
